Abilene/Dyess AFB, Texas
Current Conditions -  °F | °C
As of 4:28 AM on Friday 19 Dec 2014 (Local Time) from KDYS Reporting Station
Overcast Overcast  
Wind Chill: 39°   Ceiling: 500
Heat Index: 43°   Visibility: 10mi
Dew Point: 37°   Wind: 7mph
Humidity: 81%   Direction: 20°NNE
Pressure: 30.15"   Gusts: NA
Location:  32.43°N, 99.83°W
Report Text: KDYS 191028Z AUTO 02006KT 10SM OVC005 06/03 A3015 RMK AO2
Loading
Personal Weather Stations






























Interactive Weather Map New forecast layout! Learn more

10-Day Weather Forecast

Advertisements
Track Severe Weather on mobile